This is the latest recevied weather packets stored in our database for station/object OK0EK-11. If no packets are shown the sender has not sent any weather packets the latest 10 day(s).
| Time | Temp. | Humidity | Pressure | Rain* | Wind** | Luminosity | Snow |
|---|---|---|---|---|---|---|---|
| 1787762575 | 13.33° C | 83% | 1020.6 hPa | - | - | - | - |
| 1787761975 | 13.33° C | 83% | 1020.8 hPa | - | - | - | - |
| 1787761376 | 13.33° C | 84% | 1020.8 hPa | - | - | - | - |
| 1787760776 | 12.78° C | 85% | 1020.8 hPa | - | - | - | - |
| 1787760176 | 13.33° C | 84% | 1020.8 hPa | - | - | - | - |
| 1787759576 | 13.33° C | 82% | 1020.7 hPa | - | - | - | - |
| 1787758977 | 13.89° C | 81% | 1020.5 hPa | - | - | - | - |
| 1787758377 | 13.33° C | 83% | 1020.7 hPa | - | - | - | - |
| 1787757777 | 13.33° C | 82% | 1020.8 hPa | - | - | - | - |
| 1787757178 | 13.33° C | 80% | 1020.7 hPa | - | - | - | - |
| 1787756578 | 13.89° C | 78% | 1020.7 hPa | - | - | - | - |
| 1787755978 | 14.44° C | 76% | 1020.7 hPa | - | - | - | - |
| 1787755378 | 14.44° C | 75% | 1020.7 hPa | - | - | - | - |
| 1787754779 | 16.11° C | 70% | 1020.7 hPa | - | - | - | - |
| 1787754179 | 14.44° C | 77% | 1020.8 hPa | - | - | - | - |
| 1787753579 | 13.89° C | 78% | 1020.7 hPa | - | - | - | - |
| 1787752979 | 14.44° C | 78% | 1020.7 hPa | - | - | - | - |
| 1787752379 | 14.44° C | 78% | 1020.7 hPa | - | - | - | - |
| 1787751780 | 15° C | 76% | 1020.7 hPa | - | - | - | - |
| 1787751180 | 15° C | 74% | 1020.6 hPa | - | - | - | - |
| 1787750580 | 15° C | 75% | 1020.6 hPa | - | - | - | - |
| 1787749980 | 15° C | 76% | 1020.6 hPa | - | - | - | - |
| 1787749381 | 15° C | 74% | 1020.5 hPa | - | - | - | - |
| 1787748781 | 17.22° C | 66% | 1020.6 hPa | - | - | - | - |
| 1787748181 | 16.67° C | 69% | 1020.5 hPa | - | - | - | - |
* Rain since midnight (hover to see other rain measurements)
** Current wind speed in m/s (hover to see current wind gust speed)